sensor_id;sensor_type;location;lat;lon;timestamp;pressure;altitude;pressure_sealevel;temperature
68939;BMP180;59064;45.294;11.816;2023-08-21T00:00:03;101817.80;;;26.10
68939;BMP180;59064;45.294;11.816;2023-08-21T00:02:30;101816.80;;;26.10
68939;BMP180;59064;45.294;11.816;2023-08-21T00:04:55;101818.60;;;26.10
68939;BMP180;59064;45.294;11.816;2023-08-21T00:07:21;101819.20;;;26.10
68939;BMP180;59064;45.294;11.816;2023-08-21T00:09:47;101816.60;;;26.14
68939;BMP180;59064;45.294;11.816;2023-08-21T00:12:13;101821.80;;;26.20
68939;BMP180;59064;45.294;11.816;2023-08-21T00:14:38;101822.80;;;26.20
68939;BMP180;59064;45.294;11.816;2023-08-21T00:17:04;101819.80;;;26.20
68939;BMP180;59064;45.294;11.816;2023-08-21T00:19:30;101823.00;;;26.20
68939;BMP180;59064;45.294;11.816;2023-08-21T00:21:56;101822.00;;;26.20
68939;BMP180;59064;45.294;11.816;2023-08-21T00:24:21;101821.40;;;26.14
68939;BMP180;59064;45.294;11.816;2023-08-21T00:26:47;101819.40;;;26.16
68939;BMP180;59064;45.294;11.816;2023-08-21T00:29:12;101816.80;;;26.20
68939;BMP180;59064;45.294;11.816;2023-08-21T00:31:38;101820.60;;;26.20
68939;BMP180;59064;45.294;11.816;2023-08-21T00:34:06;101818.80;;;26.10
68939;BMP180;59064;45.294;11.816;2023-08-21T00:36:32;101818.60;;;26.10
68939;BMP180;59064;45.294;11.816;2023-08-21T00:38:57;101817.20;;;26.04
68939;BMP180;59064;45.294;11.816;2023-08-21T00:41:23;101816.20;;;26.00
68939;BMP180;59064;45.294;11.816;2023-08-21T00:43:49;101812.60;;;26.00
68939;BMP180;59064;45.294;11.816;2023-08-21T00:46:15;101810.00;;;26.00
68939;BMP180;59064;45.294;11.816;2023-08-21T00:48:41;101809.40;;;26.00
68939;BMP180;59064;45.294;11.816;2023-08-21T00:51:08;101811.20;;;25.90
68939;BMP180;59064;45.294;11.816;2023-08-21T00:53:34;101812.40;;;25.90
68939;BMP180;59064;45.294;11.816;2023-08-21T00:56:00;101808.40;;;25.90
68939;BMP180;59064;45.294;11.816;2023-08-21T00:58:25;101809.40;;;25.90
68939;BMP180;59064;45.294;11.816;2023-08-21T01:00:52;101814.20;;;25.80
68939;BMP180;59064;45.294;11.816;2023-08-21T01:03:18;101814.60;;;25.80
68939;BMP180;59064;45.294;11.816;2023-08-21T01:05:45;101816.00;;;25.70
68939;BMP180;59064;45.294;11.816;2023-08-21T01:08:39;101814.80;;;25.70
68939;BMP180;59064;45.294;11.816;2023-08-21T01:14:39;101813.40;;;25.68
68939;BMP180;59064;45.294;11.816;2023-08-21T01:17:06;101809.80;;;25.60
68939;BMP180;59064;45.294;11.816;2023-08-21T01:19:45;101809.80;;;25.60
68939;BMP180;59064;45.294;11.816;2023-08-21T01:22:11;101812.80;;;25.60
68939;BMP180;59064;45.294;11.816;2023-08-21T01:24:37;101815.80;;;25.60
68939;BMP180;59064;45.294;11.816;2023-08-21T01:27:03;101815.40;;;25.60
68939;BMP180;59064;45.294;11.816;2023-08-21T01:29:29;101818.60;;;25.60
68939;BMP180;59064;45.294;11.816;2023-08-21T01:34:42;101816.40;;;25.60
68939;BMP180;59064;45.294;11.816;2023-08-21T01:37:08;101810.80;;;25.60
68939;BMP180;59064;45.294;11.816;2023-08-21T01:39:34;101816.60;;;25.60
68939;BMP180;59064;45.294;11.816;2023-08-21T01:42:00;101814.60;;;25.60
68939;BMP180;59064;45.294;11.816;2023-08-21T01:44:25;101817.20;;;25.60
68939;BMP180;59064;45.294;11.816;2023-08-21T01:46:53;101819.80;;;25.50
68939;BMP180;59064;45.294;11.816;2023-08-21T01:49:19;101814.40;;;25.50
68939;BMP180;59064;45.294;11.816;2023-08-21T01:51:46;101816.60;;;25.54
68939;BMP180;59064;45.294;11.816;2023-08-21T01:54:12;101818.40;;;25.60
68939;BMP180;59064;45.294;11.816;2023-08-21T01:56:37;101820.40;;;25.60
68939;BMP180;59064;45.294;11.816;2023-08-21T01:59:04;101816.40;;;25.60
68939;BMP180;59064;45.294;11.816;2023-08-21T02:01:30;101818.80;;;25.50
68939;BMP180;59064;45.294;11.816;2023-08-21T02:03:56;101811.60;;;25.50
68939;BMP180;59064;45.294;11.816;2023-08-21T02:06:21;101815.40;;;25.60
68939;BMP180;59064;45.294;11.816;2023-08-21T02:08:48;101815.00;;;25.50
68939;BMP180;59064;45.294;11.816;2023-08-21T02:11:15;101812.20;;;25.50
68939;BMP180;59064;45.294;11.816;2023-08-21T02:13:40;101812.40;;;25.54
68939;BMP180;59064;45.294;11.816;2023-08-21T02:16:06;101813.60;;;25.50
68939;BMP180;59064;45.294;11.816;2023-08-21T02:18:32;101811.20;;;25.50
68939;BMP180;59064;45.294;11.816;2023-08-21T02:20:57;101807.60;;;25.50
68939;BMP180;59064;45.294;11.816;2023-08-21T02:23:23;101811.20;;;25.50
68939;BMP180;59064;45.294;11.816;2023-08-21T02:25:51;101807.00;;;25.40
68939;BMP180;59064;45.294;11.816;2023-08-21T02:28:17;101803.00;;;25.30
68939;BMP180;59064;45.294;11.816;2023-08-21T02:30:43;101805.00;;;25.20
68939;BMP180;59064;45.294;11.816;2023-08-21T02:33:09;101801.20;;;25.20
68939;BMP180;59064;45.294;11.816;2023-08-21T02:35:34;101802.80;;;25.10
68939;BMP180;59064;45.294;11.816;2023-08-21T02:38:00;101803.20;;;25.10
68939;BMP180;59064;45.294;11.816;2023-08-21T02:40:25;101804.20;;;25.08
68939;BMP180;59064;45.294;11.816;2023-08-21T02:42:51;101802.80;;;25.10
68939;BMP180;59064;45.294;11.816;2023-08-21T02:45:16;101799.00;;;25.10
68939;BMP180;59064;45.294;11.816;2023-08-21T02:47:45;101800.60;;;25.10
68939;BMP180;59064;45.294;11.816;2023-08-21T02:50:11;101802.60;;;25.10
68939;BMP180;59064;45.294;11.816;2023-08-21T02:52:37;101800.40;;;25.10
68939;BMP180;59064;45.294;11.816;2023-08-21T02:55:04;101806.40;;;25.10
68939;BMP180;59064;45.294;11.816;2023-08-21T02:57:30;101804.20;;;25.10
68939;BMP180;59064;45.294;11.816;2023-08-21T02:59:56;101805.40;;;25.10
68939;BMP180;59064;45.294;11.816;2023-08-21T03:02:22;101806.00;;;25.10
68939;BMP180;59064;45.294;11.816;2023-08-21T03:04:50;101805.40;;;25.00
68939;BMP180;59064;45.294;11.816;2023-08-21T03:07:16;101801.80;;;25.00
68939;BMP180;59064;45.294;11.816;2023-08-21T03:09:45;101804.60;;;25.00
68939;BMP180;59064;45.294;11.816;2023-08-21T03:12:15;101801.40;;;25.00
68939;BMP180;59064;45.294;11.816;2023-08-21T03:14:41;101795.20;;;25.00
68939;BMP180;59064;45.294;11.816;2023-08-21T03:17:06;101798.60;;;25.00
68939;BMP180;59064;45.294;11.816;2023-08-21T03:19:32;101797.80;;;25.00
68939;BMP180;59064;45.294;11.816;2023-08-21T03:21:57;101796.20;;;25.10
68939;BMP180;59064;45.294;11.816;2023-08-21T03:24:33;101791.20;;;25.08
68939;BMP180;59064;45.294;11.816;2023-08-21T03:26:59;101795.00;;;25.00
68939;BMP180;59064;45.294;11.816;2023-08-21T03:29:24;101801.40;;;25.04
68939;BMP180;59064;45.294;11.816;2023-08-21T03:31:50;101799.00;;;25.04
68939;BMP180;59064;45.294;11.816;2023-08-21T03:34:15;101795.60;;;25.08
68939;BMP180;59064;45.294;11.816;2023-08-21T03:36:41;101794.20;;;25.10
68939;BMP180;59064;45.294;11.816;2023-08-21T03:39:09;101796.20;;;25.10
68939;BMP180;59064;45.294;11.816;2023-08-21T03:41:35;101789.60;;;25.10
68939;BMP180;59064;45.294;11.816;2023-08-21T03:44:00;101793.20;;;25.10
68939;BMP180;59064;45.294;11.816;2023-08-21T03:46:26;101793.80;;;25.10
68939;BMP180;59064;45.294;11.816;2023-08-21T03:48:51;101796.60;;;25.10
68939;BMP180;59064;45.294;11.816;2023-08-21T03:51:27;101800.00;;;25.00
68939;BMP180;59064;45.294;11.816;2023-08-21T03:53:52;101801.00;;;25.00
68939;BMP180;59064;45.294;11.816;2023-08-21T03:56:18;101799.20;;;25.00
68939;BMP180;59064;45.294;11.816;2023-08-21T03:58:44;101801.00;;;25.00
68939;BMP180;59064;45.294;11.816;2023-08-21T04:01:10;101801.20;;;25.00
68939;BMP180;59064;45.294;11.816;2023-08-21T04:03:35;101806.60;;;24.90
68939;BMP180;59064;45.294;11.816;2023-08-21T04:06:01;101805.40;;;24.90
68939;BMP180;59064;45.294;11.816;2023-08-21T04:08:27;101801.80;;;24.84
68939;BMP180;59064;45.294;11.816;2023-08-21T04:10:53;101799.40;;;24.90
68939;BMP180;59064;45.294;11.816;2023-08-21T04:13:21;101804.00;;;24.90
68939;BMP180;59064;45.294;11.816;2023-08-21T04:15:48;101806.40;;;24.90
68939;BMP180;59064;45.294;11.816;2023-08-21T04:18:14;101806.60;;;24.90
68939;BMP180;59064;45.294;11.816;2023-08-21T04:20:40;101800.60;;;24.90
68939;BMP180;59064;45.294;11.816;2023-08-21T04:23:06;101802.20;;;24.90
68939;BMP180;59064;45.294;11.816;2023-08-21T04:25:34;101804.40;;;24.90
68939;BMP180;59064;45.294;11.816;2023-08-21T04:28:00;101798.80;;;24.90
68939;BMP180;59064;45.294;11.816;2023-08-21T04:30:26;101802.60;;;24.90
68939;BMP180;59064;45.294;11.816;2023-08-21T04:32:54;101809.60;;;24.90
68939;BMP180;59064;45.294;11.816;2023-08-21T04:35:19;101808.40;;;24.92
68939;BMP180;59064;45.294;11.816;2023-08-21T04:37:47;101812.00;;;25.00
68939;BMP180;59064;45.294;11.816;2023-08-21T04:40:13;101809.00;;;25.00
68939;BMP180;59064;45.294;11.816;2023-08-21T04:42:39;101812.40;;;25.04
68939;BMP180;59064;45.294;11.816;2023-08-21T04:45:05;101811.60;;;25.10
68939;BMP180;59064;45.294;11.816;2023-08-21T04:47:31;101813.60;;;25.10
68939;BMP180;59064;45.294;11.816;2023-08-21T04:49:57;101817.00;;;25.20
68939;BMP180;59064;45.294;11.816;2023-08-21T04:52:26;101819.00;;;25.20
68939;BMP180;59064;45.294;11.816;2023-08-21T04:54:55;101817.80;;;25.20
68939;BMP180;59064;45.294;11.816;2023-08-21T04:57:20;101821.40;;;25.30
68939;BMP180;59064;45.294;11.816;2023-08-21T04:59:47;101819.40;;;25.30
68939;BMP180;59064;45.294;11.816;2023-08-21T05:02:12;101817.40;;;25.40
68939;BMP180;59064;45.294;11.816;2023-08-21T05:04:38;101816.40;;;25.50
68939;BMP180;59064;45.294;11.816;2023-08-21T05:07:06;101819.40;;;25.66
68939;BMP180;59064;45.294;11.816;2023-08-21T05:09:36;101818.80;;;25.78
68939;BMP180;59064;45.294;11.816;2023-08-21T05:12:02;101823.60;;;25.88
68939;BMP180;59064;45.294;11.816;2023-08-21T05:14:27;101823.00;;;25.90
68939;BMP180;59064;45.294;11.816;2023-08-21T05:16:53;101822.80;;;25.90
68939;BMP180;59064;45.294;11.816;2023-08-21T05:19:19;101822.20;;;26.00
68939;BMP180;59064;45.294;11.816;2023-08-21T05:21:45;101826.40;;;26.10
68939;BMP180;59064;45.294;11.816;2023-08-21T05:24:11;101827.80;;;26.12
68939;BMP180;59064;45.294;11.816;2023-08-21T05:26:38;101826.60;;;26.20
68939;BMP180;59064;45.294;11.816;2023-08-21T05:29:05;101831.40;;;26.20
68939;BMP180;59064;45.294;11.816;2023-08-21T05:31:30;101838.60;;;26.30
68939;BMP180;59064;45.294;11.816;2023-08-21T05:33:56;101840.80;;;26.40
68939;BMP180;59064;45.294;11.816;2023-08-21T05:36:21;101841.40;;;26.48
68939;BMP180;59064;45.294;11.816;2023-08-21T05:38:47;101837.40;;;26.52
68939;BMP180;59064;45.294;11.816;2023-08-21T05:41:16;101841.60;;;26.60
68939;BMP180;59064;45.294;11.816;2023-08-21T05:43:42;101842.40;;;26.70
68939;BMP180;59064;45.294;11.816;2023-08-21T05:46:08;101842.20;;;26.80
68939;BMP180;59064;45.294;11.816;2023-08-21T05:48:34;101845.00;;;26.90
68939;BMP180;59064;45.294;11.816;2023-08-21T05:50:59;101844.80;;;26.90
68939;BMP180;59064;45.294;11.816;2023-08-21T05:53:25;101841.60;;;27.00
68939;BMP180;59064;45.294;11.816;2023-08-21T05:55:50;101847.60;;;27.02
68939;BMP180;59064;45.294;11.816;2023-08-21T05:58:16;101850.20;;;27.10
68939;BMP180;59064;45.294;11.816;2023-08-21T06:00:42;101849.40;;;27.10
68939;BMP180;59064;45.294;11.816;2023-08-21T06:03:09;101846.40;;;27.20
68939;BMP180;59064;45.294;11.816;2023-08-21T06:05:38;101848.20;;;27.30
68939;BMP180;59064;45.294;11.816;2023-08-21T06:08:04;101848.20;;;27.38
68939;BMP180;59064;45.294;11.816;2023-08-21T06:10:31;101851.80;;;27.42
68939;BMP180;59064;45.294;11.816;2023-08-21T06:12:57;101852.80;;;27.50
68939;BMP180;59064;45.294;11.816;2023-08-21T06:15:22;101850.20;;;27.60
68939;BMP180;59064;45.294;11.816;2023-08-21T06:17:48;101853.40;;;27.70
68939;BMP180;59064;45.294;11.816;2023-08-21T06:20:14;101851.60;;;27.80
68939;BMP180;59064;45.294;11.816;2023-08-21T06:22:40;101854.00;;;27.90
68939;BMP180;59064;45.294;11.816;2023-08-21T06:25:06;101850.20;;;28.00
68939;BMP180;59064;45.294;11.816;2023-08-21T06:27:31;101852.40;;;28.12
68939;BMP180;59064;45.294;11.816;2023-08-21T06:29:57;101854.60;;;28.24
68939;BMP180;59064;45.294;11.816;2023-08-21T06:32:23;101856.60;;;28.40
68939;BMP180;59064;45.294;11.816;2023-08-21T06:34:48;101856.00;;;28.50
68939;BMP180;59064;45.294;11.816;2023-08-21T06:37:14;101860.80;;;28.66
68939;BMP180;59064;45.294;11.816;2023-08-21T06:39:40;101860.20;;;28.76
68939;BMP180;59064;45.294;11.816;2023-08-21T06:42:05;101865.00;;;28.90
68939;BMP180;59064;45.294;11.816;2023-08-21T06:44:31;101870.20;;;29.00
68939;BMP180;59064;45.294;11.816;2023-08-21T06:46:56;101862.00;;;29.10
68939;BMP180;59064;45.294;11.816;2023-08-21T06:49:23;101864.60;;;29.20
68939;BMP180;59064;45.294;11.816;2023-08-21T06:51:49;101860.60;;;29.30
68939;BMP180;59064;45.294;11.816;2023-08-21T06:54:15;101863.80;;;29.32
68939;BMP180;59064;45.294;11.816;2023-08-21T06:56:41;101865.20;;;29.40
68939;BMP180;59064;45.294;11.816;2023-08-21T06:59:07;101861.60;;;29.50
68939;BMP180;59064;45.294;11.816;2023-08-21T07:01:32;101867.00;;;29.50
68939;BMP180;59064;45.294;11.816;2023-08-21T07:03:58;101868.20;;;29.58
68939;BMP180;59064;45.294;11.816;2023-08-21T07:06:24;101871.20;;;29.60
68939;BMP180;59064;45.294;11.816;2023-08-21T07:08:49;101870.00;;;29.80
68939;BMP180;59064;45.294;11.816;2023-08-21T07:11:15;101865.00;;;29.82
68939;BMP180;59064;45.294;11.816;2023-08-21T07:13:42;101864.40;;;29.90
68939;BMP180;59064;45.294;11.816;2023-08-21T07:16:08;101865.40;;;29.94
68939;BMP180;59064;45.294;11.816;2023-08-21T07:18:34;101867.80;;;30.00
68939;BMP180;59064;45.294;11.816;2023-08-21T07:21:04;101868.40;;;30.00
68939;BMP180;59064;45.294;11.816;2023-08-21T07:23:33;101868.60;;;30.10
68939;BMP180;59064;45.294;11.816;2023-08-21T07:26:01;101871.80;;;30.20
68939;BMP180;59064;45.294;11.816;2023-08-21T07:28:27;101870.80;;;30.30
68939;BMP180;59064;45.294;11.816;2023-08-21T07:30:57;101872.20;;;30.40
68939;BMP180;59064;45.294;11.816;2023-08-21T07:33:25;101874.40;;;30.50
68939;BMP180;59064;45.294;11.816;2023-08-21T07:36:05;101877.00;;;30.60
68939;BMP180;59064;45.294;11.816;2023-08-21T07:38:32;101873.20;;;30.70
68939;BMP180;59064;45.294;11.816;2023-08-21T07:41:08;101874.80;;;30.70
68939;BMP180;59064;45.294;11.816;2023-08-21T07:43:43;101877.20;;;30.80
68939;BMP180;59064;45.294;11.816;2023-08-21T07:46:11;101872.60;;;30.80
68939;BMP180;59064;45.294;11.816;2023-08-21T07:48:45;101872.60;;;30.84
68939;BMP180;59064;45.294;11.816;2023-08-21T07:51:14;101872.80;;;30.94
68939;BMP180;59064;45.294;11.816;2023-08-21T07:53:39;101871.20;;;31.06
68939;BMP180;59064;45.294;11.816;2023-08-21T07:56:05;101875.40;;;31.14
68939;BMP180;59064;45.294;11.816;2023-08-21T07:58:31;101876.60;;;31.20
68939;BMP180;59064;45.294;11.816;2023-08-21T08:00:58;101882.80;;;31.30
68939;BMP180;59064;45.294;11.816;2023-08-21T08:03:24;101877.20;;;31.30
68939;BMP180;59064;45.294;11.816;2023-08-21T08:05:51;101880.40;;;31.46
68939;BMP180;59064;45.294;11.816;2023-08-21T08:08:17;101882.20;;;31.60
68939;BMP180;59064;45.294;11.816;2023-08-21T08:10:47;101884.40;;;31.76
68939;BMP180;59064;45.294;11.816;2023-08-21T08:13:12;101886.00;;;31.90
68939;BMP180;59064;45.294;11.816;2023-08-21T08:15:38;101890.60;;;32.06
68939;BMP180;59064;45.294;11.816;2023-08-21T08:18:04;101885.20;;;32.10
68939;BMP180;59064;45.294;11.816;2023-08-21T08:20:31;101884.00;;;32.10
68939;BMP180;59064;45.294;11.816;2023-08-21T08:22:58;101882.00;;;32.00
68939;BMP180;59064;45.294;11.816;2023-08-21T08:25:23;101883.40;;;32.00
68939;BMP180;59064;45.294;11.816;2023-08-21T08:27:52;101884.20;;;32.10
68939;BMP180;59064;45.294;11.816;2023-08-21T08:30:20;101884.60;;;32.28
68939;BMP180;59064;45.294;11.816;2023-08-21T08:32:49;101888.60;;;32.32
68939;BMP180;59064;45.294;11.816;2023-08-21T08:35:15;101892.20;;;32.40
68939;BMP180;59064;45.294;11.816;2023-08-21T08:37:41;101891.40;;;32.50
68939;BMP180;59064;45.294;11.816;2023-08-21T08:40:09;101888.60;;;32.70
68939;BMP180;59064;45.294;11.816;2023-08-21T08:42:35;101890.20;;;32.88
68939;BMP180;59064;45.294;11.816;2023-08-21T08:45:05;101888.20;;;32.98
68939;BMP180;59064;45.294;11.816;2023-08-21T08:47:35;101885.80;;;33.00
68939;BMP180;59064;45.294;11.816;2023-08-21T08:50:03;101883.80;;;33.20
68939;BMP180;59064;45.294;11.816;2023-08-21T08:52:35;101889.00;;;33.30
68939;BMP180;59064;45.294;11.816;2023-08-21T08:55:01;101886.40;;;33.50
68939;BMP180;59064;45.294;11.816;2023-08-21T08:57:28;101886.60;;;33.60
68939;BMP180;59064;45.294;11.816;2023-08-21T08:59:53;101885.20;;;33.60
68939;BMP180;59064;45.294;11.816;2023-08-21T09:02:19;101883.20;;;33.78
68939;BMP180;59064;45.294;11.816;2023-08-21T09:04:44;101884.60;;;33.84
68939;BMP180;59064;45.294;11.816;2023-08-21T09:07:12;101884.00;;;34.08
68939;BMP180;59064;45.294;11.816;2023-08-21T09:09:44;101877.60;;;34.30
68939;BMP180;59064;45.294;11.816;2023-08-21T09:12:12;101875.40;;;34.42
68939;BMP180;59064;45.294;11.816;2023-08-21T09:14:40;101877.40;;;34.50
68939;BMP180;59064;45.294;11.816;2023-08-21T09:17:06;101873.80;;;34.60
68939;BMP180;59064;45.294;11.816;2023-08-21T09:19:32;101870.20;;;34.80
68939;BMP180;59064;45.294;11.816;2023-08-21T09:22:00;101873.60;;;34.90
68939;BMP180;59064;45.294;11.816;2023-08-21T09:24:33;101874.60;;;35.06
68939;BMP180;59064;45.294;11.816;2023-08-21T09:27:01;101870.00;;;35.20
68939;BMP180;59064;45.294;11.816;2023-08-21T09:29:38;101864.60;;;35.12
68939;BMP180;59064;45.294;11.816;2023-08-21T09:32:04;101862.20;;;35.00
68939;BMP180;59064;45.294;11.816;2023-08-21T09:34:34;101857.40;;;35.14
68939;BMP180;59064;45.294;11.816;2023-08-21T09:37:05;101858.00;;;35.10
68939;BMP180;59064;45.294;11.816;2023-08-21T09:39:36;101860.00;;;35.22
68939;BMP180;59064;45.294;11.816;2023-08-21T09:42:09;101857.20;;;35.20
68939;BMP180;59064;45.294;11.816;2023-08-21T09:44:39;101856.40;;;35.14
68939;BMP180;59064;45.294;11.816;2023-08-21T09:47:09;101853.60;;;35.40
68939;BMP180;59064;45.294;11.816;2023-08-21T09:49:36;101851.40;;;35.58
68939;BMP180;59064;45.294;11.816;2023-08-21T09:52:07;101848.80;;;35.70
68939;BMP180;59064;45.294;11.816;2023-08-21T09:54:38;101846.00;;;35.60
68939;BMP180;59064;45.294;11.816;2023-08-21T09:57:04;101842.20;;;35.80
68939;BMP180;59064;45.294;11.816;2023-08-21T09:59:31;101842.80;;;35.70
68939;BMP180;59064;45.294;11.816;2023-08-21T10:02:00;101833.60;;;35.48
68939;BMP180;59064;45.294;11.816;2023-08-21T10:04:34;101836.20;;;35.30
68939;BMP180;59064;45.294;11.816;2023-08-21T10:07:01;101830.20;;;35.18
68939;BMP180;59064;45.294;11.816;2023-08-21T10:09:30;101825.80;;;35.10
68939;BMP180;59064;45.294;11.816;2023-08-21T10:11:57;101826.40;;;35.18
68939;BMP180;59064;45.294;11.816;2023-08-21T10:14:23;101830.60;;;35.30
68939;BMP180;59064;45.294;11.816;2023-08-21T10:16:53;101831.20;;;35.44
68939;BMP180;59064;45.294;11.816;2023-08-21T10:19:23;101830.60;;;35.62
68939;BMP180;59064;45.294;11.816;2023-08-21T10:21:55;101824.20;;;35.62
68939;BMP180;59064;45.294;11.816;2023-08-21T10:24:34;101828.40;;;35.80
68939;BMP180;59064;45.294;11.816;2023-08-21T10:27:01;101830.80;;;35.88
68939;BMP180;59064;45.294;11.816;2023-08-21T10:29:26;101828.80;;;35.98
68939;BMP180;59064;45.294;11.816;2023-08-21T10:32:03;101829.80;;;36.18
68939;BMP180;59064;45.294;11.816;2023-08-21T10:34:42;101827.60;;;36.40
68939;BMP180;59064;45.294;11.816;2023-08-21T10:37:16;101825.40;;;36.40
68939;BMP180;59064;45.294;11.816;2023-08-21T10:39:56;101830.60;;;36.40
68939;BMP180;59064;45.294;11.816;2023-08-21T10:42:39;101824.60;;;36.70
68939;BMP180;59064;45.294;11.816;2023-08-21T10:45:12;101822.60;;;36.60
68939;BMP180;59064;45.294;11.816;2023-08-21T10:47:38;101822.60;;;36.74
68939;BMP180;59064;45.294;11.816;2023-08-21T10:50:08;101818.60;;;36.90
68939;BMP180;59064;45.294;11.816;2023-08-21T10:52:42;101819.60;;;36.70
68939;BMP180;59064;45.294;11.816;2023-08-21T10:55:12;101814.20;;;36.80
68939;BMP180;59064;45.294;11.816;2023-08-21T10:57:39;101811.20;;;36.80
68939;BMP180;59064;45.294;11.816;2023-08-21T11:00:10;101813.40;;;36.80
68939;BMP180;59064;45.294;11.816;2023-08-21T11:02:40;101817.20;;;36.90
68939;BMP180;59064;45.294;11.816;2023-08-21T11:05:08;101816.60;;;37.36
68939;BMP180;59064;45.294;11.816;2023-08-21T11:07:43;101816.40;;;37.86
68939;BMP180;59064;45.294;11.816;2023-08-21T11:10:19;101815.80;;;38.10
68939;BMP180;59064;45.294;11.816;2023-08-21T11:12:55;101812.80;;;38.10
68939;BMP180;59064;45.294;11.816;2023-08-21T11:15:22;101807.60;;;37.94
68939;BMP180;59064;45.294;11.816;2023-08-21T11:17:53;101807.00;;;37.80
68939;BMP180;59064;45.294;11.816;2023-08-21T11:20:19;101805.40;;;38.04
68939;BMP180;59064;45.294;11.816;2023-08-21T11:22:45;101809.00;;;37.90
68939;BMP180;59064;45.294;11.816;2023-08-21T11:25:11;101807.20;;;37.72
68939;BMP180;59064;45.294;11.816;2023-08-21T11:27:37;101800.40;;;37.90
68939;BMP180;59064;45.294;11.816;2023-08-21T11:30:04;101802.40;;;37.70
68939;BMP180;59064;45.294;11.816;2023-08-21T11:32:29;101794.60;;;37.80
68939;BMP180;59064;45.294;11.816;2023-08-21T11:34:57;101795.40;;;37.72
68939;BMP180;59064;45.294;11.816;2023-08-21T11:37:25;101799.40;;;37.48
68939;BMP180;59064;45.294;11.816;2023-08-21T11:39:57;101799.80;;;37.40
68939;BMP180;59064;45.294;11.816;2023-08-21T11:42:32;101796.20;;;37.46
68939;BMP180;59064;45.294;11.816;2023-08-21T11:45:00;101790.40;;;37.80
68939;BMP180;59064;45.294;11.816;2023-08-21T11:47:34;101790.40;;;38.10
68939;BMP180;59064;45.294;11.816;2023-08-21T11:50:07;101794.20;;;38.20
68939;BMP180;59064;45.294;11.816;2023-08-21T11:52:37;101789.80;;;38.50
68939;BMP180;59064;45.294;11.816;2023-08-21T11:55:08;101788.80;;;38.86
68939;BMP180;59064;45.294;11.816;2023-08-21T11:57:47;101788.80;;;39.10
68939;BMP180;59064;45.294;11.816;2023-08-21T12:00:13;101789.60;;;39.10
68939;BMP180;59064;45.294;11.816;2023-08-21T12:02:43;101786.40;;;38.92
68939;BMP180;59064;45.294;11.816;2023-08-21T12:05:14;101791.80;;;39.00
68939;BMP180;59064;45.294;11.816;2023-08-21T12:07:40;101784.40;;;39.44
68939;BMP180;59064;45.294;11.816;2023-08-21T12:10:07;101786.60;;;39.40
68939;BMP180;59064;45.294;11.816;2023-08-21T12:12:33;101781.20;;;39.58
68939;BMP180;59064;45.294;11.816;2023-08-21T12:14:58;101779.60;;;39.66
68939;BMP180;59064;45.294;11.816;2023-08-21T12:17:24;101776.00;;;39.50
68939;BMP180;59064;45.294;11.816;2023-08-21T12:19:50;101775.40;;;39.36
68939;BMP180;59064;45.294;11.816;2023-08-21T12:22:15;101772.40;;;39.26
68939;BMP180;59064;45.294;11.816;2023-08-21T12:24:41;101771.40;;;38.90
68939;BMP180;59064;45.294;11.816;2023-08-21T12:27:07;101778.00;;;38.90
68939;BMP180;59064;45.294;11.816;2023-08-21T12:29:34;101780.40;;;39.34
68939;BMP180;59064;45.294;11.816;2023-08-21T12:32:00;101772.40;;;39.70
68939;BMP180;59064;45.294;11.816;2023-08-21T12:34:26;101774.80;;;39.70
68939;BMP180;59064;45.294;11.816;2023-08-21T12:36:52;101770.80;;;39.70
68939;BMP180;59064;45.294;11.816;2023-08-21T12:39:17;101770.20;;;39.74
68939;BMP180;59064;45.294;11.816;2023-08-21T12:41:43;101763.60;;;40.00
68939;BMP180;59064;45.294;11.816;2023-08-21T12:44:09;101765.40;;;40.16
68939;BMP180;59064;45.294;11.816;2023-08-21T12:46:38;101761.60;;;40.06
68939;BMP180;59064;45.294;11.816;2023-08-21T12:49:04;101765.80;;;40.16
68939;BMP180;59064;45.294;11.816;2023-08-21T12:51:30;101768.00;;;40.10
68939;BMP180;59064;45.294;11.816;2023-08-21T12:53:55;101764.40;;;40.20
68939;BMP180;59064;45.294;11.816;2023-08-21T12:56:21;101766.00;;;40.30
68939;BMP180;59064;45.294;11.816;2023-08-21T12:58:47;101763.20;;;40.12
68939;BMP180;59064;45.294;11.816;2023-08-21T13:01:13;101759.40;;;39.80
68939;BMP180;59064;45.294;11.816;2023-08-21T13:03:44;101759.40;;;40.06
68939;BMP180;59064;45.294;11.816;2023-08-21T13:06:12;101767.60;;;40.10
68939;BMP180;59064;45.294;11.816;2023-08-21T13:08:38;101767.00;;;40.36
68939;BMP180;59064;45.294;11.816;2023-08-21T13:11:06;101767.40;;;40.60
68939;BMP180;59064;45.294;11.816;2023-08-21T13:13:33;101759.60;;;40.70
68939;BMP180;59064;45.294;11.816;2023-08-21T13:15:59;101755.40;;;40.50
68939;BMP180;59064;45.294;11.816;2023-08-21T13:18:26;101760.80;;;40.30
68939;BMP180;59064;45.294;11.816;2023-08-21T13:20:51;101759.60;;;40.28
68939;BMP180;59064;45.294;11.816;2023-08-21T13:23:17;101764.60;;;40.08
68939;BMP180;59064;45.294;11.816;2023-08-21T13:25:43;101755.20;;;40.46
68939;BMP180;59064;45.294;11.816;2023-08-21T13:28:08;101756.80;;;40.94
68939;BMP180;59064;45.294;11.816;2023-08-21T13:30:34;101749.20;;;41.30
68939;BMP180;59064;45.294;11.816;2023-08-21T13:33:00;101750.20;;;41.00
68939;BMP180;59064;45.294;11.816;2023-08-21T13:35:25;101747.40;;;40.84
68939;BMP180;59064;45.294;11.816;2023-08-21T13:37:51;101740.40;;;41.34
68939;BMP180;59064;45.294;11.816;2023-08-21T13:40:17;101742.20;;;41.74
68939;BMP180;59064;45.294;11.816;2023-08-21T13:42:45;101742.00;;;42.20
68939;BMP180;59064;45.294;11.816;2023-08-21T13:45:15;101735.20;;;42.30
68939;BMP180;59064;45.294;11.816;2023-08-21T13:47:44;101733.20;;;42.40
68939;BMP180;59064;45.294;11.816;2023-08-21T13:50:11;101725.20;;;42.50